createdAt,value
2018-05-27T00:01:32.492Z,63.45
2018-05-27T00:03:43.550Z,63.36
2018-05-27T00:05:54.722Z,63.39
2018-05-27T00:08:05.866Z,63.50
2018-05-27T00:10:17.025Z,63.47
2018-05-27T00:12:28.106Z,63.49
2018-05-27T00:14:39.237Z,63.72
2018-05-27T00:16:50.407Z,64.00
2018-05-27T00:19:01.484Z,63.89
2018-05-27T00:21:12.577Z,64.13
2018-05-27T00:23:23.651Z,64.17
2018-05-27T00:25:34.843Z,64.43
2018-05-27T00:27:45.890Z,64.72
2018-05-27T00:29:57.006Z,64.85
2018-05-27T00:32:08.127Z,64.86
2018-05-27T00:34:19.266Z,64.86
2018-05-27T00:36:30.402Z,64.89
2018-05-27T00:38:41.458Z,64.70
2018-05-27T00:40:52.563Z,64.58
2018-05-27T00:43:03.650Z,64.49
2018-05-27T00:45:14.723Z,64.49
2018-05-27T00:47:25.886Z,64.62
2018-05-27T00:49:37.047Z,64.71
2018-05-27T00:51:48.103Z,64.69
2018-05-27T00:53:59.376Z,64.83
2018-05-27T00:56:10.443Z,64.94
2018-05-27T00:58:21.558Z,64.78
2018-05-27T01:00:32.635Z,64.85
2018-05-27T01:02:43.701Z,65.13
2018-05-27T01:04:54.937Z,64.95
2018-05-27T01:07:05.999Z,64.76
2018-05-27T01:09:17.239Z,64.87
2018-05-27T01:11:28.382Z,64.79
2018-05-27T01:13:39.463Z,64.85
2018-05-27T01:15:50.591Z,65.00
2018-05-27T01:18:01.683Z,64.81
2018-05-27T01:20:12.770Z,64.76
2018-05-27T01:22:23.842Z,64.90
2018-05-27T01:24:34.976Z,64.96
2018-05-27T01:26:46.077Z,65.23
2018-05-27T01:28:57.261Z,65.22
2018-05-27T01:31:08.349Z,65.03
2018-05-27T01:33:19.508Z,65.06
2018-05-27T01:35:30.614Z,65.12
2018-05-27T01:37:41.683Z,65.08
2018-05-27T01:39:52.746Z,65.12
2018-05-27T01:42:03.834Z,65.24
2018-05-27T01:44:14.923Z,65.14
2018-05-27T01:46:26.127Z,65.05
2018-05-27T01:48:37.262Z,64.90
2018-05-27T01:50:48.412Z,64.65
2018-05-27T01:52:59.490Z,64.55
2018-05-27T01:55:10.570Z,64.60
2018-05-27T01:57:21.662Z,64.58
2018-05-27T01:59:32.731Z,64.42
2018-05-27T02:01:43.887Z,64.26
2018-05-27T02:03:55.003Z,64.36
2018-05-27T02:06:06.125Z,64.71
2018-05-27T02:08:17.352Z,64.70
2018-05-27T02:10:28.414Z,64.60
2018-05-27T02:12:39.502Z,64.58
2018-05-27T02:14:50.599Z,64.68
2018-05-27T02:17:01.763Z,65.00
2018-05-27T02:19:12.887Z,65.17
2018-05-27T02:21:23.995Z,65.05
2018-05-27T02:23:35.228Z,65.11
2018-05-27T02:25:46.355Z,65.14
2018-05-27T02:27:57.545Z,65.24
2018-05-27T02:30:08.625Z,65.45
2018-05-27T02:32:19.736Z,65.08
2018-05-27T02:34:30.825Z,65.44
2018-05-27T02:36:41.932Z,65.62
2018-05-27T02:38:53.111Z,66.13
2018-05-27T02:41:04.170Z,66.26
2018-05-27T02:43:15.334Z,66.35
2018-05-27T02:45:26.406Z,66.49
2018-05-27T02:47:37.579Z,66.90
2018-05-27T02:49:48.662Z,66.92
2018-05-27T02:51:59.746Z,66.87
2018-05-27T02:54:10.831Z,67.15
2018-05-27T02:56:21.935Z,67.04
2018-05-27T02:58:33.130Z,66.87
2018-05-27T03:00:44.239Z,66.63
2018-05-27T03:02:55.480Z,66.63
2018-05-27T03:05:06.608Z,66.66
2018-05-27T03:07:17.796Z,66.80
2018-05-27T03:09:28.895Z,67.18
2018-05-27T03:11:39.964Z,67.37
2018-05-27T03:13:51.051Z,67.30
2018-05-27T03:16:02.136Z,67.19
2018-05-27T03:18:13.314Z,67.10
2018-05-27T03:20:24.419Z,67.23
2018-05-27T03:22:35.524Z,67.46
2018-05-27T03:24:46.562Z,67.27
2018-05-27T03:26:57.755Z,67.22
2018-05-27T03:29:08.806Z,67.04
2018-05-27T03:31:19.894Z,67.18
2018-05-27T03:33:30.992Z,67.08
2018-05-27T03:35:42.052Z,66.93
2018-05-27T03:37:53.255Z,66.83
2018-05-27T03:40:04.346Z,66.87
2018-05-27T03:42:15.518Z,67.10
2018-05-27T03:44:26.578Z,67.30
2018-05-27T03:46:37.658Z,67.33
2018-05-27T03:48:48.723Z,67.19
2018-05-27T03:50:59.813Z,67.03
2018-05-27T03:53:10.895Z,67.12
2018-05-27T03:55:22.067Z,67.07
2018-05-27T03:57:33.246Z,67.27
2018-05-27T03:59:44.316Z,67.31
2018-05-27T04:01:55.542Z,67.40
2018-05-27T04:04:18.811Z,67.46
2018-05-27T04:06:42.142Z,67.81
2018-05-27T04:08:53.275Z,67.77
2018-05-27T04:11:04.348Z,67.58
2018-05-27T04:13:15.442Z,67.66
2018-05-27T04:15:26.522Z,67.73
2018-05-27T04:17:37.735Z,67.52
2018-05-27T04:19:48.808Z,67.68
2018-05-27T04:21:59.899Z,67.54
2018-05-27T04:24:11.015Z,67.40
2018-05-27T04:26:22.088Z,67.16
2018-05-27T04:28:33.311Z,67.06
2018-05-27T04:30:44.397Z,66.86
2018-05-27T04:32:55.555Z,66.76
2018-05-27T04:35:06.650Z,66.54
2018-05-27T04:37:17.723Z,66.48
2018-05-27T04:39:28.791Z,66.58
2018-05-27T04:41:39.887Z,66.83
2018-05-27T04:43:50.964Z,66.79
2018-05-27T04:46:02.110Z,66.75
2018-05-27T04:48:13.214Z,66.57
2018-05-27T04:50:24.462Z,66.43
2018-05-27T04:52:35.578Z,66.42
2018-05-27T04:54:46.714Z,66.50
2018-05-27T04:56:57.930Z,66.43
2018-05-27T04:59:09.039Z,66.30
2018-05-27T05:01:20.090Z,66.18
2018-05-27T05:03:31.162Z,66.17
2018-05-27T05:05:42.282Z,66.16
2018-05-27T05:07:53.545Z,66.34
2018-05-27T05:10:04.605Z,66.52
2018-05-27T05:12:15.827Z,66.66
2018-05-27T05:14:26.879Z,66.77
2018-05-27T05:16:38.160Z,66.97
2018-05-27T05:18:49.238Z,66.92
2018-05-27T05:21:00.306Z,66.67
2018-05-27T05:23:11.410Z,66.78
2018-05-27T05:25:22.459Z,66.84
2018-05-27T05:27:33.554Z,66.71
2018-05-27T05:29:44.682Z,66.71
2018-05-27T05:31:55.855Z,66.41
2018-05-27T05:34:07.040Z,66.06
2018-05-27T05:36:18.176Z,65.74
2018-05-27T05:38:29.176Z,65.63
2018-05-27T05:40:40.278Z,65.33
2018-05-27T05:42:51.348Z,64.70
2018-05-27T05:45:02.431Z,64.10
2018-05-27T05:47:13.541Z,63.70
2018-05-27T05:49:24.696Z,63.54
2018-05-27T05:51:36.604Z,62.95
2018-05-27T05:53:47.718Z,62.18
2018-05-27T05:55:58.874Z,62.08
2018-05-27T05:58:09.946Z,61.23
2018-05-27T06:00:21.044Z,61.18
2018-05-27T06:02:32.170Z,60.62
2018-05-27T06:04:43.291Z,60.51
2018-05-27T06:06:54.354Z,59.89
2018-05-27T06:09:05.421Z,60.13
2018-05-27T06:11:16.530Z,59.95
2018-05-27T06:13:27.701Z,58.74
2018-05-27T06:15:38.759Z,57.96
2018-05-27T06:17:50.010Z,57.98
2018-05-27T06:20:01.100Z,58.38
2018-05-27T06:22:12.291Z,58.30
2018-05-27T06:24:23.359Z,58.02
2018-05-27T06:26:34.435Z,58.34
2018-05-27T06:28:45.505Z,58.09
2018-05-27T06:30:56.666Z,58.83
2018-05-27T06:33:07.915Z,58.89
2018-05-27T06:35:18.981Z,58.63
2018-05-27T06:37:30.187Z,57.32
2018-05-27T06:39:41.250Z,56.40
2018-05-27T06:41:52.363Z,57.10
2018-05-27T06:44:03.438Z,53.78
2018-05-27T06:46:14.505Z,53.54
2018-05-27T06:48:25.673Z,53.40
2018-05-27T06:50:36.751Z,52.79
2018-05-27T06:52:48.046Z,52.04
2018-05-27T06:54:59.203Z,51.70
2018-05-27T06:57:10.346Z,51.61
2018-05-27T06:59:25.404Z,51.05
2018-05-27T07:01:36.510Z,50.55
2018-05-27T07:03:47.578Z,49.94
2018-05-27T07:05:58.693Z,48.64
2018-05-27T07:08:11.634Z,47.68
2018-05-27T07:10:22.749Z,46.73
2018-05-27T07:12:33.947Z,47.66
2018-05-27T07:14:45.071Z,46.76
2018-05-27T07:16:56.178Z,46.99
2018-05-27T07:19:07.284Z,45.79
2018-05-27T07:21:18.460Z,45.02
2018-05-27T07:23:29.547Z,43.04
2018-05-27T07:25:40.697Z,41.98
2018-05-27T07:27:51.785Z,43.20
2018-05-27T07:30:02.959Z,43.30
2018-05-27T07:32:14.105Z,42.86
2018-05-27T07:34:25.230Z,42.97
2018-05-27T07:36:36.425Z,44.58
2018-05-27T07:38:47.526Z,43.79
2018-05-27T07:40:58.630Z,43.32
2018-05-27T07:43:09.722Z,42.89
2018-05-27T07:45:20.834Z,41.88
2018-05-27T07:47:31.922Z,41.93
2018-05-27T07:49:43.079Z,42.22
2018-05-27T07:51:54.245Z,43.92
2018-05-27T07:54:05.323Z,43.97
2018-05-27T07:56:16.498Z,42.54
2018-05-27T07:58:27.672Z,44.34
2018-05-27T08:00:38.690Z,44.59
2018-05-27T08:02:49.812Z,44.99
2018-05-27T08:05:00.905Z,44.37
2018-05-27T08:07:12.061Z,44.05
2018-05-27T08:09:23.161Z,43.06
2018-05-27T08:11:34.419Z,43.85
2018-05-27T08:13:45.476Z,44.97
2018-05-27T08:15:57.407Z,44.00
2018-05-27T08:18:08.596Z,45.63
2018-05-27T08:20:19.727Z,41.24
2018-05-27T08:22:31.072Z,41.02
2018-05-27T08:24:42.284Z,41.31
2018-05-27T08:26:53.408Z,41.48
2018-05-27T08:29:04.695Z,40.90
2018-05-27T08:31:15.763Z,41.41
2018-05-27T08:33:26.908Z,40.89
2018-05-27T08:35:38.020Z,41.29
2018-05-27T08:37:49.107Z,41.38
2018-05-27T08:40:00.235Z,42.02
2018-05-27T08:42:11.386Z,41.95
2018-05-27T08:44:22.507Z,40.26
2018-05-27T08:46:33.635Z,42.72
2018-05-27T08:48:44.894Z,43.48
2018-05-27T08:50:55.987Z,42.19
2018-05-27T08:53:07.039Z,40.40
2018-05-27T08:55:18.158Z,41.90
2018-05-27T08:57:29.238Z,41.77
2018-05-27T08:59:40.446Z,41.93
2018-05-27T09:01:51.514Z,41.22
2018-05-27T09:04:02.679Z,40.39
2018-05-27T09:06:13.895Z,41.46
2018-05-27T09:08:25.127Z,39.98
2018-05-27T09:10:36.356Z,40.04
2018-05-27T09:12:47.473Z,39.47
2018-05-27T09:14:58.683Z,41.63
2018-05-27T09:17:09.742Z,41.25
2018-05-27T09:19:20.853Z,40.95
2018-05-27T09:21:31.985Z,41.63
2018-05-27T09:23:43.095Z,39.07
2018-05-27T09:25:56.167Z,43.13
2018-05-27T09:28:07.274Z,40.00
2018-05-27T09:30:18.588Z,37.11
2018-05-27T09:32:29.695Z,37.54
2018-05-27T09:34:40.910Z,38.51
2018-05-27T09:36:52.816Z,38.95
2018-05-27T09:39:04.676Z,38.91
2018-05-27T09:41:15.801Z,39.41
2018-05-27T09:43:28.899Z,38.80
2018-05-27T09:45:39.993Z,38.13
2018-05-27T09:47:51.200Z,40.32
2018-05-27T09:50:02.342Z,39.24
2018-05-27T09:52:13.471Z,37.89
2018-05-27T09:54:24.697Z,37.13
2018-05-27T09:56:35.814Z,39.41
2018-05-27T09:58:46.958Z,36.81
2018-05-27T10:00:58.059Z,36.19
2018-05-27T10:03:09.191Z,35.73
2018-05-27T10:05:20.318Z,34.85
2018-05-27T10:07:31.428Z,37.24
2018-05-27T10:09:42.710Z,33.90
2018-05-27T10:11:53.862Z,36.93
2018-05-27T10:14:05.058Z,35.99
2018-05-27T10:16:16.158Z,35.03
2018-05-27T10:18:27.290Z,37.28
2018-05-27T10:20:38.407Z,37.33
2018-05-27T10:22:49.630Z,38.12
2018-05-27T10:25:00.764Z,38.04
2018-05-27T10:27:11.847Z,36.50
2018-05-27T10:29:23.076Z,37.76
2018-05-27T10:31:35.879Z,35.28
2018-05-27T10:33:47.121Z,37.47
2018-05-27T10:35:58.227Z,38.32
2018-05-27T10:38:09.333Z,35.14
2018-05-27T10:40:20.543Z,34.24
2018-05-27T10:42:31.650Z,33.28
2018-05-27T10:44:42.739Z,33.64
2018-05-27T10:46:53.824Z,33.79
2018-05-27T10:49:05.015Z,34.11
2018-05-27T10:51:16.120Z,36.21
2018-05-27T10:53:27.329Z,38.38
2018-05-27T10:55:38.538Z,35.88
2018-05-27T10:57:49.671Z,34.76
2018-05-27T11:00:00.785Z,34.06
2018-05-27T11:02:11.835Z,34.84
2018-05-27T11:04:22.959Z,34.79
2018-05-27T11:06:34.077Z,32.27
2018-05-27T11:08:45.275Z,33.36
2018-05-27T11:10:56.478Z,32.31
2018-05-27T11:13:07.667Z,31.65
2018-05-27T11:15:18.795Z,34.12
2018-05-27T11:17:29.885Z,33.38
2018-05-27T11:19:41.095Z,33.96
2018-05-27T11:21:52.227Z,34.19
2018-05-27T11:24:03.356Z,33.87
2018-05-27T11:26:14.408Z,33.47
2018-05-27T11:28:25.555Z,35.06
2018-05-27T11:30:36.763Z,35.39
2018-05-27T11:32:47.945Z,33.49
2018-05-27T11:34:59.229Z,34.00
2018-05-27T11:37:10.322Z,33.52
2018-05-27T11:39:21.576Z,34.21
2018-05-27T11:41:32.753Z,33.11
2018-05-27T11:43:43.906Z,33.16
2018-05-27T11:45:55.102Z,34.95
2018-05-27T11:48:06.241Z,36.97
2018-05-27T11:50:17.362Z,35.46
2018-05-27T11:52:28.524Z,36.23
2018-05-27T11:54:39.645Z,33.00
2018-05-27T11:56:50.828Z,33.19
2018-05-27T11:59:01.974Z,34.74
2018-05-27T12:01:13.174Z,35.41
2018-05-27T12:03:24.303Z,34.91
2018-05-27T12:05:35.579Z,35.86
2018-05-27T12:07:46.663Z,38.88
2018-05-27T12:09:57.737Z,37.76
2018-05-27T12:12:08.923Z,37.98
2018-05-27T12:14:20.011Z,38.24
2018-05-27T12:16:31.286Z,35.06
2018-05-27T12:18:42.356Z,37.86
2018-05-27T12:20:53.562Z,37.04
2018-05-27T12:23:04.698Z,37.52
2018-05-27T12:25:15.955Z,38.46
2018-05-27T12:27:27.143Z,38.60
2018-05-27T12:29:38.295Z,36.91
2018-05-27T12:31:49.403Z,36.86
2018-05-27T12:34:00.507Z,36.35
2018-05-27T12:36:11.612Z,37.77
2018-05-27T12:38:22.724Z,37.81
2018-05-27T12:40:33.814Z,38.95
2018-05-27T12:42:45.068Z,38.64
2018-05-27T12:44:56.134Z,38.65
2018-05-27T12:47:07.278Z,38.99
2018-05-27T12:49:18.479Z,38.77
2018-05-27T12:51:29.568Z,39.17
2018-05-27T12:53:40.839Z,38.71
2018-05-27T12:55:51.920Z,39.04
2018-05-27T12:58:03.069Z,38.59
2018-05-27T13:00:14.195Z,39.57
2018-05-27T13:02:25.404Z,38.86
2018-05-27T13:04:36.506Z,39.05
2018-05-27T13:06:47.659Z,38.71
2018-05-27T13:08:58.939Z,40.69
2018-05-27T13:11:10.010Z,41.54
2018-05-27T13:13:21.320Z,39.41
2018-05-27T13:15:32.439Z,39.59
2018-05-27T13:17:43.599Z,40.43
2018-05-27T13:19:54.714Z,39.37
2018-05-27T13:22:05.764Z,40.15
2018-05-27T13:24:16.852Z,39.74
2018-05-27T13:26:27.978Z,39.17
2018-05-27T13:28:39.176Z,41.84
2018-05-27T13:30:50.334Z,41.96
2018-05-27T13:33:01.488Z,39.86
2018-05-27T13:35:12.597Z,39.28
2018-05-27T13:37:27.086Z,40.44
2018-05-27T13:39:38.202Z,41.61
2018-05-27T13:41:49.395Z,42.10
2018-05-27T13:44:00.529Z,40.44
2018-05-27T13:46:11.794Z,41.51
2018-05-27T13:48:22.985Z,40.94
2018-05-27T13:50:34.147Z,42.56
2018-05-27T13:52:45.352Z,41.93
2018-05-27T13:54:56.462Z,40.41
2018-05-27T13:57:07.761Z,41.06
2018-05-27T13:59:18.840Z,41.43
2018-05-27T14:01:29.972Z,41.22
2018-05-27T14:03:41.094Z,40.66
2018-05-27T14:05:52.170Z,40.71
2018-05-27T14:08:03.355Z,41.20
2018-05-27T14:10:14.476Z,40.31
2018-05-27T14:12:25.605Z,40.67
2018-05-27T14:14:36.686Z,40.27
2018-05-27T14:16:47.851Z,41.62
2018-05-27T14:18:58.918Z,41.76
2018-05-27T14:21:10.015Z,41.11
2018-05-27T14:23:21.118Z,41.30
2018-05-27T14:25:32.258Z,41.53
2018-05-27T14:27:43.499Z,42.12
2018-05-27T14:29:54.579Z,41.70
2018-05-27T14:32:05.818Z,41.71
2018-05-27T14:34:16.882Z,42.27
2018-05-27T14:36:28.009Z,43.02
2018-05-27T14:38:39.170Z,43.16
2018-05-27T14:40:50.248Z,42.90
2018-05-27T14:43:01.338Z,43.29
2018-05-27T14:45:12.474Z,44.55
2018-05-27T14:47:23.650Z,43.73
2018-05-27T14:49:34.784Z,43.84
2018-05-27T14:51:45.951Z,42.88
2018-05-27T14:53:57.054Z,41.51
2018-05-27T14:56:08.195Z,42.49
2018-05-27T14:58:19.266Z,41.51
2018-05-27T15:00:30.383Z,42.02
2018-05-27T15:02:41.478Z,42.17
2018-05-27T15:04:52.591Z,40.21
2018-05-27T15:07:03.778Z,41.15
2018-05-27T15:09:14.839Z,40.85
2018-05-27T15:11:26.014Z,40.30
2018-05-27T15:13:37.143Z,40.13
2018-05-27T15:15:48.276Z,40.23
2018-05-27T15:17:59.407Z,40.96
2018-05-27T15:20:10.568Z,40.73
2018-05-27T15:22:21.683Z,41.75
2018-05-27T15:24:32.746Z,42.02
2018-05-27T15:26:43.851Z,42.18
2018-05-27T15:28:55.089Z,42.39
2018-05-27T15:31:06.215Z,41.90
2018-05-27T15:33:17.294Z,42.28
2018-05-27T15:35:28.400Z,42.13
2018-05-27T15:37:39.560Z,42.18
2018-05-27T15:39:50.632Z,43.08
2018-05-27T15:42:01.783Z,42.89
2018-05-27T15:44:12.897Z,43.97
2018-05-27T15:46:24.251Z,43.36
2018-05-27T15:48:35.440Z,43.09
2018-05-27T15:50:46.573Z,42.44
2018-05-27T15:52:57.765Z,43.10
2018-05-27T15:55:08.872Z,43.83
2018-05-27T15:57:20.089Z,44.36
2018-05-27T15:59:31.217Z,44.16
2018-05-27T16:01:42.348Z,43.85
2018-05-27T16:03:53.430Z,43.50
2018-05-27T16:06:04.560Z,43.60
2018-05-27T16:08:15.677Z,43.59
2018-05-27T16:10:26.826Z,43.89
2018-05-27T16:12:38.115Z,43.61
2018-05-27T16:14:49.358Z,43.53
2018-05-27T16:17:00.679Z,44.08
2018-05-27T16:19:11.884Z,44.22
2018-05-27T16:21:22.962Z,44.31
2018-05-27T16:23:34.206Z,44.70
2018-05-27T16:25:45.394Z,44.58
2018-05-27T16:27:56.551Z,44.96
2018-05-27T16:30:07.640Z,45.24
2018-05-27T16:32:18.776Z,44.39
2018-05-27T16:34:29.862Z,44.90
2018-05-27T16:36:40.946Z,43.97
2018-05-27T16:38:52.235Z,44.59
2018-05-27T16:41:03.435Z,45.21
2018-05-27T16:43:14.585Z,45.19
2018-05-27T16:45:25.720Z,44.94
2018-05-27T16:47:36.827Z,45.43
2018-05-27T16:49:48.031Z,45.77
2018-05-27T16:51:59.188Z,45.41
2018-05-27T16:54:10.272Z,45.70
2018-05-27T16:56:21.354Z,45.23
2018-05-27T16:58:32.579Z,45.60
2018-05-27T17:00:43.705Z,45.59
2018-05-27T17:02:54.839Z,45.70
2018-05-27T17:05:06.116Z,45.78
2018-05-27T17:07:17.215Z,45.09
2018-05-27T17:09:28.523Z,45.08
2018-05-27T17:11:39.641Z,45.10
2018-05-27T17:13:50.771Z,44.53
2018-05-27T17:16:01.938Z,44.54
2018-05-27T17:18:13.031Z,46.03
2018-05-27T17:20:24.135Z,46.26
2018-05-27T17:22:35.248Z,45.57
2018-05-27T17:24:46.356Z,46.54
2018-05-27T17:26:57.454Z,45.81
2018-05-27T17:29:08.670Z,44.76
2018-05-27T17:31:19.763Z,45.07
2018-05-27T17:33:30.855Z,45.25
2018-05-27T17:35:42.041Z,45.18
2018-05-27T17:37:53.122Z,45.01
2018-05-27T17:40:04.255Z,45.20
2018-05-27T17:42:15.346Z,45.08
2018-05-27T17:44:26.465Z,45.52
2018-05-27T17:46:37.625Z,45.71
2018-05-27T17:48:48.816Z,47.54
2018-05-27T17:51:00.082Z,49.50
2018-05-27T17:53:11.223Z,51.35
2018-05-27T17:55:22.347Z,51.47
2018-05-27T17:57:33.494Z,51.82
2018-05-27T17:59:44.569Z,52.87
2018-05-27T18:01:55.668Z,53.74
2018-05-27T18:04:06.917Z,54.15
2018-05-27T18:06:18.006Z,54.33
2018-05-27T18:08:29.170Z,54.30
2018-05-27T18:10:40.451Z,54.46
2018-05-27T18:12:51.606Z,55.16
2018-05-27T18:15:02.746Z,55.65
2018-05-27T18:17:13.858Z,55.58
2018-05-27T18:19:25.006Z,56.05
2018-05-27T18:21:36.110Z,56.32
2018-05-27T18:23:47.235Z,56.37
2018-05-27T18:25:58.469Z,56.96
2018-05-27T18:28:09.547Z,57.05
2018-05-27T18:30:20.711Z,57.20
2018-05-27T18:32:31.785Z,56.79
2018-05-27T18:34:42.927Z,57.08
2018-05-27T18:36:54.023Z,56.85
2018-05-27T18:39:05.174Z,57.11
2018-05-27T18:41:16.326Z,57.06
2018-05-27T18:43:27.387Z,57.30
2018-05-27T18:45:38.646Z,57.67
2018-05-27T18:47:49.735Z,57.90
2018-05-27T18:50:00.876Z,58.05
2018-05-27T18:52:12.107Z,58.05
2018-05-27T18:54:23.328Z,58.30
2018-05-27T18:56:34.542Z,58.15
2018-05-27T18:58:45.652Z,58.43
2018-05-27T19:00:56.876Z,58.77
2018-05-27T19:03:07.950Z,58.70
2018-05-27T19:05:19.050Z,58.68
2018-05-27T19:07:30.152Z,58.68
2018-05-27T19:09:41.293Z,58.82
2018-05-27T19:11:52.440Z,59.02
2018-05-27T19:14:03.582Z,59.18
2018-05-27T19:16:14.754Z,59.24
2018-05-27T19:18:25.870Z,59.60
2018-05-27T19:20:37.054Z,59.79
2018-05-27T19:22:48.134Z,60.21
2018-05-27T19:24:59.238Z,60.71
2018-05-27T19:27:10.347Z,60.77
2018-05-27T19:29:21.448Z,60.25
2018-05-27T19:31:32.697Z,59.97
2018-05-27T19:33:43.831Z,59.28
2018-05-27T19:35:55.018Z,58.70
2018-05-27T19:38:06.130Z,58.19
2018-05-27T19:40:17.268Z,57.61
2018-05-27T19:42:28.371Z,57.38
2018-05-27T19:44:39.474Z,57.23
2018-05-27T19:46:50.580Z,57.21
2018-05-27T19:49:01.735Z,57.30
2018-05-27T19:51:12.866Z,57.38
2018-05-27T19:53:24.035Z,57.39
2018-05-27T19:55:35.150Z,57.48
2018-05-27T19:57:46.363Z,57.62
2018-05-27T19:59:57.515Z,57.39
2018-05-27T20:02:08.699Z,57.95
2018-05-27T20:04:19.794Z,58.60
2018-05-27T20:06:30.910Z,59.27
2018-05-27T20:08:42.013Z,59.90
2018-05-27T20:10:53.223Z,60.23
2018-05-27T20:13:04.367Z,60.19
2018-05-27T20:15:15.508Z,60.54
2018-05-27T20:17:26.712Z,60.59
2018-05-27T20:19:37.861Z,60.66
2018-05-27T20:21:49.047Z,60.57
2018-05-27T20:24:00.175Z,60.59
2018-05-27T20:26:11.305Z,60.78
2018-05-27T20:28:22.491Z,60.59
2018-05-27T20:30:33.610Z,60.10
2018-05-27T20:32:44.755Z,60.19
2018-05-27T20:34:55.861Z,60.05
2018-05-27T20:37:07.049Z,60.16
2018-05-27T20:39:18.253Z,60.58
2018-05-27T20:41:29.328Z,60.65
2018-05-27T20:43:40.470Z,60.66
2018-05-27T20:45:51.595Z,60.54
2018-05-27T20:48:02.746Z,60.51
2018-05-27T20:50:13.823Z,60.84
2018-05-27T20:52:24.952Z,61.15
2018-05-27T20:54:36.060Z,61.42
2018-05-27T20:56:47.282Z,61.87
2018-05-27T20:58:58.406Z,61.91
2018-05-27T21:01:09.598Z,61.82
2018-05-27T21:03:20.770Z,61.97
2018-05-27T21:05:31.886Z,62.36
2018-05-27T21:07:43.087Z,62.55
2018-05-27T21:09:54.202Z,62.67
2018-05-27T21:12:05.305Z,62.32
2018-05-27T21:14:16.406Z,61.80
2018-05-27T21:16:27.515Z,61.40
2018-05-27T21:18:38.629Z,61.30
2018-05-27T21:20:49.798Z,61.23
2018-05-27T21:23:01.004Z,61.26
2018-05-27T21:25:12.074Z,61.26
2018-05-27T21:27:23.258Z,61.23
2018-05-27T21:29:34.434Z,61.22
2018-05-27T21:31:45.542Z,61.26
2018-05-27T21:33:56.630Z,61.06
2018-05-27T21:36:07.750Z,61.24
2018-05-27T21:38:18.845Z,61.68
2018-05-27T21:40:29.959Z,61.67
2018-05-27T21:42:41.083Z,61.79
2018-05-27T21:44:52.165Z,61.91
2018-05-27T21:47:03.323Z,62.08
2018-05-27T21:49:14.418Z,62.18
2018-05-27T21:51:25.554Z,62.24
2018-05-27T21:53:36.638Z,62.34
2018-05-27T21:55:47.714Z,62.56
2018-05-27T21:57:58.915Z,62.60
2018-05-27T22:00:09.995Z,62.66
2018-05-27T22:02:21.227Z,63.10
2018-05-27T22:04:32.305Z,63.46
2018-05-27T22:06:43.530Z,63.58
2018-05-27T22:08:54.613Z,63.54
2018-05-27T22:11:05.667Z,63.49
2018-05-27T22:13:16.816Z,63.54
2018-05-27T22:15:27.907Z,63.73
2018-05-27T22:17:39.083Z,63.80
2018-05-27T22:19:50.143Z,63.73
2018-05-27T22:22:01.238Z,63.75
2018-05-27T22:24:12.370Z,63.83
2018-05-27T22:26:23.628Z,63.89
2018-05-27T22:28:34.712Z,63.67
2018-05-27T22:30:45.778Z,63.53
2018-05-27T22:32:56.866Z,63.37
2018-05-27T22:35:07.964Z,63.28
2018-05-27T22:37:19.047Z,63.75
2018-05-27T22:39:30.147Z,63.97
2018-05-27T22:41:41.369Z,64.51
2018-05-27T22:43:52.482Z,64.81
2018-05-27T22:46:03.749Z,65.22
2018-05-27T22:48:14.843Z,65.23
2018-05-27T22:50:25.943Z,65.10
2018-05-27T22:52:37.035Z,65.00
2018-05-27T22:54:48.159Z,64.82
2018-05-27T22:56:59.266Z,64.78
2018-05-27T22:59:10.427Z,65.17
2018-05-27T23:01:21.550Z,64.93
2018-05-27T23:03:32.620Z,64.85
2018-05-27T23:05:43.748Z,64.57
2018-05-27T23:07:54.815Z,64.52
2018-05-27T23:10:06.744Z,64.44
2018-05-27T23:12:17.830Z,64.20
2018-05-27T23:14:28.924Z,63.94
2018-05-27T23:16:40.044Z,63.92
2018-05-27T23:18:51.134Z,63.97
2018-05-27T23:21:02.234Z,64.15
2018-05-27T23:23:13.367Z,64.40
2018-05-27T23:25:24.533Z,64.60
2018-05-27T23:27:35.633Z,65.17
2018-05-27T23:29:46.767Z,65.11
2018-05-27T23:31:57.950Z,65.26
2018-05-27T23:34:09.110Z,65.11
2018-05-27T23:36:20.171Z,65.01
2018-05-27T23:38:31.231Z,65.08
2018-05-27T23:40:42.312Z,64.87
2018-05-27T23:42:53.590Z,64.71
2018-05-27T23:45:04.646Z,64.59
2018-05-27T23:47:15.851Z,64.63
2018-05-27T23:49:26.903Z,64.65
2018-05-27T23:51:38.071Z,64.63
2018-05-27T23:53:49.150Z,64.54
2018-05-27T23:56:00.206Z,64.32
2018-05-27T23:58:11.300Z,64.26
